• Join FlightAware (Why Join?)
  • Login
  • US Flag 
07:14PM EDT


 

Airport Tracker/Info


-or-


 

Live Flight TrackerFlight Track Log ✈ UAL33 ✈ 18-Jun-2013 ✈ KORD - KIAH

Flight Track Log - Related Links

Times and Time Zones

All times are in EDT time to prevent confusion due to time zone crossing. See the UAL33 flight status page for this flight to view local times or setup timezone preferences in your user account.

Time Position Orientation Groundspeed Altitude Reporting Facility
EDT Latitude Longitude Course Direction KTS MPH feet Rate Location/Type
09:45PM 41.9820 -87.9240 319° Northwest 146 168 500  Level FlightAware
09:45PM 41.9960 -87.9400 320° Northwest 159 183 1,800 2,760 Climbing FlightAware
09:45PM 42.0030 -87.9490 316° Northwest 171 197 2,300 1,980 Climbing FlightAware
09:46PM 42.0240 -87.9740 319° Northwest 225 259 3,200 2,520 Climbing FlightAware
09:46PM 42.0480 -87.9970 325° Northwest 253 291 4,700 3,660 Climbing FlightAware
09:47PM 42.0810 -88.0270 326° Northwest 267 307 6,800 4,140 Climbing FlightAware
09:47PM 42.1020 -88.0490 322° Northwest 266 306 8,500 4,080 Climbing FlightAware
09:47PM 42.1100 -88.0770 291° West 275 316 9,600 3,900 Climbing FlightAware
09:48PM 42.1020 -88.1230 257° West 291 335 11,300 3,360 Climbing FlightAware
09:48PM 42.0750 -88.1970 244° Southwest 318 366 13,500 3,240 Climbing FlightAware
09:49PM 42.0480 -88.2710 244° Southwest 343 395 15,900 1,680 Climbing FlightAware
09:50PM 42.0170 -88.3600 245° Southwest 377 434 15,900 540 Level FlightAware
09:51PM 41.9850 -88.4490 244° Southwest 377 434 16,700 2,220 Climbing FlightAware
09:51PM 41.9550 -88.5380 246° West 389 448 19,000 3,480 Climbing FlightAware
09:52PM 41.9250 -88.6410 249° West 397 457 21,700 3,360 Climbing FlightAware
09:53PM 41.9010 -88.7250 249° West 406 467 23,600 3,180 Climbing FlightAware
09:53PM 41.8730 -88.8230 249° West 408 470 25,900 2,940 Climbing FlightAware
09:54PM 41.8400 -88.9360 249° West 418 481 28,000 2,340 Climbing FlightAware
09:55PM 41.8100 -89.0350 248° West 436 502 29,300 1,380 Climbing FlightAware
09:56PM 41.7770 -89.1460 248° West 460 529 30,300 1,260 Climbing FlightAware
09:56PM 41.7350 -89.2850 248° West 486 559 31,300 1,320 Climbing FlightAware
09:57PM 41.6940 -89.4230 248° West 497 572 32,200 1,140 Climbing FlightAware
09:58PM 41.6600 -89.5350 248° West 497 572 33,000 540 Climbing FlightAware
09:59PM 41.6230 -89.6580 248° West 488 562 33,000  Level FlightAware
09:59PM 41.5890 -89.7700 248° West 488 562 33,000  Level FlightAware
10:00PM 41.5610 -89.8620 248° West 487 560 33,000  Level FlightAware
10:01PM 41.5190 -89.9990 248° West 485 558 33,000  Level FlightAware
10:01PM 41.4790 -90.1120 245° Southwest 489 563 33,000  Level FlightAware
10:02PM 41.4220 -90.2250 236° Southwest 495 570 33,000  Level FlightAware
10:03PM 41.3740 -90.3170 235° Southwest 492 566 33,000  Level FlightAware
10:03PM 41.3120 -90.4350 235° Southwest 492 566 33,000  Level FlightAware
10:04PM 41.2600 -90.5340 235° Southwest 494 568 33,000  Level FlightAware
10:05PM 41.2130 -90.6220 235° Southwest 494 568 33,000  Level FlightAware
10:05PM 41.1510 -90.7390 235° Southwest 496 571 33,000 120 Level FlightAware
10:06PM 41.0940 -90.8460 235° Southwest 499 574 33,200 1,080 Climbing FlightAware
10:07PM 41.0370 -90.9520 235° Southwest 494 568 34,600 1,980 Climbing FlightAware
10:08PM 40.9900 -91.0430 236° Southwest 477 549 35,900 1,020 Climbing FlightAware
10:08PM 40.9440 -91.1460 239° Southwest 467 537 36,000 840 Climbing FlightAware
10:09PM 40.8940 -91.2610 240° Southwest 461 531 37,200 1,560 Climbing FlightAware
10:10PM 40.8540 -91.3550 241° Southwest 457 526 38,200 1,260 Climbing FlightAware
10:10PM 40.8090 -91.4560 240° Southwest 458 527 39,000 600 Climbing FlightAware
10:11PM 40.7510 -91.5900 240° Southwest 459 528 39,300 600 Climbing FlightAware
10:12PM 40.7050 -91.6950 240° Southwest 460 529 40,000 480 Climbing FlightAware
10:13PM 40.6560 -91.7870 235° Southwest 462 532 40,000  Level FlightAware
10:13PM 40.6160 -91.8590 234° Southwest 462 532 40,000  Level FlightAware
10:14PM 40.5280 -91.9810 227° Southwest 469 540 40,000  Level FlightAware
10:15PM 40.4430 -92.0710 219° Southwest 473 544 40,000  Level FlightAware
10:15PM 40.3900 -92.1190 215° Southwest 473 544 40,000  Level FlightAware
10:16PM 40.3170 -92.1880 216° Southwest 473 544 40,000  Level FlightAware
10:17PM 40.2180 -92.2800 215° Southwest 475 547 40,000  Level FlightAware
10:18PM 40.1350 -92.3580 216° Southwest 480 552 40,000  Level FlightAware
10:19PM 40.0300 -92.4560 216° Southwest 476 548 40,000  Level FlightAware
10:19PM 39.9650 -92.5150 215° Southwest 476 548 40,000  Level FlightAware
10:20PM 39.8740 -92.5990 215° Southwest 476 548 40,000  Level FlightAware
10:21PM 39.8180 -92.6510 216° Southwest 476 548 40,000  Level FlightAware
10:22PM 39.7200 -92.7420 216° Southwest 483 556 40,000  Level FlightAware
10:22PM 39.6380 -92.8170 215° Southwest 486 559 40,000  Level FlightAware
10:23PM 39.5610 -92.8870 215° Southwest 483 556 40,000  Level FlightAware
10:24PM 39.4940 -92.9490 216° Southwest 482 555 40,000  Level FlightAware
10:25PM 39.4020 -93.0320 215° Southwest 478 550 40,000  Level FlightAware
10:25PM 39.3280 -93.1000 215° Southwest 477 549 40,000  Level FlightAware
10:26PM 39.2540 -93.1660 215° Southwest 476 548 40,000  Level FlightAware
10:27PM 39.1820 -93.2310 215° Southwest 471 542 40,000  Level FlightAware
10:27PM 39.1050 -93.3010 215° Southwest 472 543 40,000  Level FlightAware
10:28PM 39.0310 -93.3670 215° Southwest 474 545 40,000  Level FlightAware
10:29PM 38.9560 -93.4340 215° Southwest 477 549 40,000  Level FlightAware
10:29PM 38.8770 -93.5040 215° Southwest 478 550 40,000  Level FlightAware
10:30PM 38.7960 -93.5760 215° Southwest 479 551 40,000  Level FlightAware
10:31PM 38.7260 -93.6380 215° Southwest 484 557 40,000  Level FlightAware
10:32PM 38.6450 -93.7100 215° Southwest 489 563 40,000  Level FlightAware
10:32PM 38.5700 -93.7760 215° Southwest 489 563 40,000  Level FlightAware
10:33PM 38.4920 -93.8450 215° Southwest 489 563 40,000  Level FlightAware
10:34PM 38.4140 -93.9140 215° Southwest 482 555 40,000  Level FlightAware
10:34PM 38.3350 -93.9820 214° Southwest 483 556 40,000  Level FlightAware
10:35PM 38.2650 -94.0440 215° Southwest 480 552 40,000  Level FlightAware
10:36PM 38.1820 -94.1170 215° Southwest 479 551 40,000  Level FlightAware
10:36PM 38.1060 -94.1820 214° Southwest 479 551 40,000  Level FlightAware
10:37PM 38.0300 -94.2480 214° Southwest 481 554 40,000  Level FlightAware
10:38PM 37.9470 -94.3200 214° Southwest 483 556 40,000  Level FlightAware
10:39PM 37.8730 -94.3830 214° Southwest 482 555 40,000  Level FlightAware
10:39PM 37.7910 -94.4540 214° Southwest 486 559 40,000  Level FlightAware
10:40PM 37.6730 -94.5550 214° Southwest 488 562 40,000  Level FlightAware
10:41PM 37.5910 -94.6250 214° Southwest 489 563 40,000  Level FlightAware
10:42PM 37.5130 -94.6910 214° Southwest 488 562 40,000  Level FlightAware
10:42PM 37.4380 -94.7560 215° Southwest 489 563 40,000  Level FlightAware
10:43PM 37.3550 -94.8260 214° Southwest 487 560 40,000  Level FlightAware
10:44PM 37.2810 -94.8880 214° Southwest 486 559 40,000  Level FlightAware
10:45PM 37.1980 -94.9580 214° Southwest 487 560 40,000  Level FlightAware
10:45PM 37.1200 -95.0230 214° Southwest 485 558 40,000  Level FlightAware
10:46PM 37.0460 -95.0860 214° Southwest 487 560 40,000  Level FlightAware
10:47PM 36.9660 -95.1530 214° Southwest 487 560 40,000  Level FlightAware
10:47PM 36.8860 -95.2190 213° Southwest 490 564 40,000  Level FlightAware
10:48PM 36.8110 -95.2820 214° Southwest 492 566 40,000  Level FlightAware
10:49PM 36.7240 -95.3540 214° Southwest 495 570 40,000  Level FlightAware
10:49PM 36.6540 -95.4120 214° Southwest 494 568 40,000  Level FlightAware
10:50PM 36.5460 -95.5010 214° Southwest 493 567 40,000  Level FlightAware
10:51PM 36.4650 -95.5680 214° Southwest 492 566 40,000  Level FlightAware
10:52PM 36.3890 -95.6300 213° Southwest 494 568 40,000  Level FlightAware
10:53PM 36.2470 -95.7470 214° Southwest 490 564 40,000  Level FlightAware
10:54PM 36.1770 -95.7920 207° Southwest 499 574 40,000  Level FlightAware
10:54PM 36.0730 -95.8310 197° South 508 585 40,000  Level FlightAware
10:55PM 36.0230 -95.8490 196° South 508 585 40,000  Level FlightAware
10:55PM 35.9090 -95.8890 196° South 506 582 40,000  Level FlightAware
10:56PM 35.7800 -95.9340 196° South 509 586 40,000  Level FlightAware
10:57PM 35.7000 -95.9620 196° South 506 582 40,000  Level FlightAware
10:58PM 35.6010 -95.9960 196° South 503 579 40,000  Level FlightAware
10:59PM 35.4970 -96.0320 196° South 503 579 40,000  Level FlightAware
10:59PM 35.4160 -96.0600 196° South 501 577 40,000  Level FlightAware
11:00PM 35.3140 -96.0950 196° South 500 575 40,000  Level FlightAware
11:01PM 35.2140 -96.1290 196° South 499 574 40,000  Level FlightAware
11:01PM 35.1260 -96.1600 196° South 495 570 40,000  Level FlightAware
11:02PM 35.0340 -96.1910 195° South 494 568 40,000  Level FlightAware
11:03PM 34.9540 -96.2180 195° South 495 570 40,000  Level FlightAware
11:03PM 34.8500 -96.2540 196° South 494 568 40,000  Level FlightAware
11:04PM 34.7520 -96.2870 195° South 491 565 40,000  Level FlightAware
11:05PM 34.6770 -96.3120 195° South 488 562 40,000  Level FlightAware
11:06PM 34.5980 -96.3390 196° South 489 563 40,000  Level FlightAware
11:06PM 34.4810 -96.3780 195° South 494 568 40,000  Level FlightAware
11:07PM 34.3920 -96.4080 196° South 495 570 40,000  Level FlightAware
11:08PM 34.3220 -96.4300 195° South 495 570 40,000  Level FlightAware
11:09PM 34.1400 -96.4930 196° South 495 570 40,000  Level FlightAware
11:09PM 34.0550 -96.5210 195° South 494 568 40,000  Level FlightAware
11:10PM 33.9520 -96.5550 195° South 490 564 40,000  Level FlightAware
11:11PM 33.9050 -96.5710 196° South 491 565 40,000  Level FlightAware
11:11PM 33.8058 -96.6041 195° South 491 565 40,000  Level FlightAware ADS-B
11:12PM 33.7440 -96.6250 196° South 490 564 40,000  Level FlightAware
11:12PM 33.7010 -96.6387 195° South 492 566 40,000  Level FlightAware ADS-B
11:13PM 33.6340 -96.6609 195° South 495 570 40,000  Level FlightAware ADS-B
11:13PM 33.5471 -96.6883 195° South 495 570 40,000  Level FlightAware ADS-B
11:14PM 33.4521 -96.6955 184° South 502 578 40,000  Level FlightAware ADS-B
11:14PM 33.4304 -96.6935 176° South 509 586 40,000  Level FlightAware ADS-B
11:15PM 33.2610 -96.6770 175° South 504 580 40,000  Level FlightAware
11:16PM 33.1680 -96.6680 175° South 504 580 40,000  Level FlightAware
11:17PM 33.0650 -96.6590 176° South 504 580 40,000 -480 Level FlightAware
11:17PM 32.9710 -96.6500 175° South 501 577 39,400 -960 Descending FlightAware
11:18PM 32.9137 -96.6443 175° South 501 577 39,000 -360 Descending FlightAware ADS-B
11:19PM 32.8093 -96.6343 175° South 494 568 39,000  Level FlightAware ADS-B
11:20PM 32.6810 -96.6220 175° South 493 567 39,000  Level FlightAware
11:20PM 32.6322 -96.6177 176° South 494 568 39,000  Level FlightAware ADS-B
11:20PM 32.5598 -96.6110 176° South 498 573 39,000  Level FlightAware ADS-B
11:21PM 32.4860 -96.6040 175° South 499 574 39,000  Level FlightAware
11:21PM 32.4703 -96.6026 176° South 500 575 39,000  Level FlightAware ADS-B
11:22PM 32.3890 -96.5950 175° South 503 579 39,000  Level FlightAware
11:22PM 32.2870 -96.5850 175° South 506 582 39,000  Level FlightAware
11:23PM 32.2563 -96.5826 176° South 508 585 39,000  Level FlightAware ADS-B
11:23PM 32.1837 -96.5760 176° South 507 583 39,000 -300 Level FlightAware ADS-B
11:24PM 32.1000 -96.5680 175° South 502 578 38,700 -600 Descending FlightAware
11:24PM 32.0603 -96.5644 176° South 508 585 38,500 -1,020 Descending FlightAware ADS-B
11:24PM 31.9906 -96.5580 176° South 497 572 37,900 -1,380 Descending FlightAware ADS-B
11:25PM 31.9194 -96.5514 176° South 497 572 37,100 -1,500 Descending FlightAware ADS-B
11:26PM 31.7770 -96.5382 175° South 500 575 35,600 -1,680 Descending FlightAware ADS-B
11:27PM 31.5762 -96.5200 176° South 508 585 33,000 -1,980 Descending FlightAware ADS-B
11:28PM 31.5136 -96.5087 169° South 519 597 31,900 -2,040 Descending FlightAware ADS-B
11:29PM 31.4151 -96.4740 161° South 528 608 30,700 -1,620 Descending FlightAware ADS-B
11:29PM 31.3776 -96.4552 157° South 532 612 30,300 -2,340 Descending FlightAware ADS-B
11:30PM 31.1770 -96.3272 151° Southeast 534 615 26,500 -2,700 Descending FlightAware ADS-B
11:32PM 30.9867 -96.2040 151° Southeast 499 574 22,200 -2,820 Descending FlightAware ADS-B
11:32PM 30.9259 -96.1649 151° Southeast 489 563 20,800 -2,820 Descending FlightAware ADS-B
11:33PM 30.8062 -96.0881 151° Southeast 470 541 17,900 -2,760 Descending FlightAware ADS-B
11:34PM 30.7483 -96.0505 151° Southeast 460 529 16,600 -1,980 Descending FlightAware ADS-B
11:36PM 30.4859 -95.8831 151° Southeast 426 490 12,200 -1,740 Descending FlightAware ADS-B
11:37PM 30.4579 -95.8634 147° Southeast 426 490 12,000 -360 Descending FlightAware ADS-B
11:37PM 30.4303 -95.8386 142° Southeast 425 489 12,000 -1,260 Level FlightAware ADS-B
11:38PM 30.3861 -95.7925 138° Southeast 419 482 11,000 -960 Descending FlightAware ADS-B
11:39PM 30.2488 -95.6489 138° Southeast 354 407 10,000 -600 Descending FlightAware ADS-B
11:39PM 30.2317 -95.6309 138° Southeast 321 369 9,900 -1,320 Descending FlightAware ADS-B
11:40PM 30.1983 -95.5961 138° Southeast 304 350 9,000 -1,800 Descending FlightAware ADS-B
11:40PM 30.1822 -95.5794 138° Southeast 304 350 8,500 -1,380 Descending FlightAware ADS-B
11:41PM 30.1345 -95.5300 138° Southeast 300 345 7,600 -1,320 Descending FlightAware ADS-B
11:41PM 30.1239 -95.5175 133° Southeast 299 344 7,300 -1,380 Descending FlightAware ADS-B
11:41PM 30.1107 -95.4898 112° Southeast 295 339 6,900 -1,080 Descending FlightAware ADS-B
11:42PM 30.1065 -95.4682 99° East 291 335 6,700 -1,020 Descending FlightAware ADS-B
11:42PM 30.1061 -95.4620 94° East 292 336 6,600 -1,200 Descending FlightAware ADS-B
11:44PM 30.1061 -95.2800 90° East 242 278 4,100 -1,500 Descending FlightAware ADS-B
11:44PM 30.1054 -95.2449 95° East 236 272 2,800 -2,940 Descending FlightAware ADS-B
11:44PM 30.1048 -95.2410 100° East 233 268 2,600 -2,280 Descending FlightAware ADS-B
11:45PM 30.1008 -95.2258 110° East 221 254 2,200 -1,800 Descending FlightAware ADS-B
11:45PM 30.0992 -95.2220 116° Southeast 217 250 2,100 -1,020 Descending FlightAware ADS-B
11:45PM 30.0949 -95.2141 126° Southeast 215 247 2,000 -540 Descending FlightAware ADS-B
11:45PM 30.0921 -95.2102 130° Southeast 213 245 2,000  Level FlightAware ADS-B
11:45PM 30.0891 -95.2061 130° Southeast 211 243 2,000  Level FlightAware ADS-B
11:45PM 30.0861 -95.2025 134° Southeast 211 243 2,000  Level FlightAware ADS-B
11:45PM 30.0833 -95.1997 139° Southeast 210 242 2,000  Level FlightAware ADS-B
11:45PM 30.0807 -95.1977 146° Southeast 211 243 2,000  Level FlightAware ADS-B
11:45PM 30.0780 -95.1959 150° Southeast 211 243 2,000  Level FlightAware ADS-B
11:45PM 30.0742 -95.1936 152° Southeast 211 243 2,000  Level FlightAware ADS-B
11:45PM 30.0673 -95.1901 156° South 204 235 2,000  Level FlightAware ADS-B
11:46PM 30.0580 -95.1856 157° South 192 221 2,000  Level FlightAware ADS-B
11:46PM 30.0556 -95.1846 160° South 188 216 2,000  Level FlightAware ADS-B
11:46PM 30.0529 -95.1837 164° South 186 214 2,000  Level FlightAware ADS-B
11:46PM 30.0502 -95.1832 171° South 184 212 2,000  Level FlightAware ADS-B
11:46PM 30.0461 -95.1831 179° South 182 209 2,000  Level FlightAware ADS-B
11:46PM 30.0411 -95.1836 185° South 181 208 2,000  Level FlightAware ADS-B
11:46PM 30.0378 -95.1841 187° South 182 209 2,000  Level FlightAware ADS-B
11:46PM 30.0326 -95.1850 189° South 182 209 2,000  Level FlightAware ADS-B
11:46PM 30.0207 -95.1877 191° South 180 207 2,000 -300 Level FlightAware ADS-B
11:46PM 30.0152 -95.1895 196° South 177 204 1,900 -780 Descending FlightAware ADS-B
11:47PM 30.0085 -95.1924 201° Southwest 173 199 1,800 -720 Descending FlightAware ADS-B
11:47PM 29.9973 -95.1995 209° Southwest 160 184 1,600 -480 Descending FlightAware ADS-B
11:47PM 29.9923 -95.2044 220° Southwest 153 176 1,600 -480 Level FlightAware ADS-B
11:47PM 29.9899 -95.2074 227° Southwest 151 174 1,500 -1,020 Descending FlightAware ADS-B
11:47PM 29.9851 -95.2152 235° Southwest 137 158 1,300 -600 Descending FlightAware ADS-B
11:47PM 29.9830 -95.2202 244° Southwest 133 153 1,300  Level FlightAware ADS-B